createdAt,value
2023-01-23T00:01:35.193Z,8.60
2023-01-23T00:04:02.278Z,8.27
2023-01-23T00:06:30.245Z,9.55
2023-01-23T00:09:00.163Z,9.43
2023-01-23T00:11:30.289Z,8.57
2023-01-23T00:13:59.716Z,9.40
2023-01-23T00:16:31.192Z,8.70
2023-01-23T00:19:01.178Z,8.90
2023-01-23T00:21:30.500Z,9.63
2023-01-23T00:24:02.185Z,9.10
2023-01-23T00:26:34.192Z,8.77
2023-01-23T00:29:04.210Z,9.55
2023-01-23T00:31:35.771Z,9.00
2023-01-23T00:34:10.409Z,8.95
2023-01-23T00:36:40.882Z,9.50
2023-01-23T00:39:12.547Z,9.13
2023-01-23T00:41:44.664Z,8.32
2023-01-23T00:44:11.305Z,8.75
2023-01-23T00:46:39.791Z,9.18
2023-01-23T00:49:09.146Z,8.80
2023-01-23T00:51:37.724Z,8.25
2023-01-23T00:54:04.425Z,8.93
2023-01-23T00:56:32.261Z,9.05
2023-01-23T00:59:00.563Z,8.90
2023-01-23T01:01:30.197Z,9.63
2023-01-23T01:03:57.113Z,9.27
2023-01-23T01:06:27.197Z,9.32
2023-01-23T01:08:57.328Z,8.90
2023-01-23T01:11:29.214Z,9.27
2023-01-23T01:13:59.438Z,9.00
2023-01-23T01:16:27.214Z,8.88
2023-01-23T01:18:58.057Z,9.73
2023-01-23T01:21:26.542Z,8.02
2023-01-23T01:23:54.238Z,8.50
2023-01-23T01:26:24.172Z,8.60
2023-01-23T01:28:54.322Z,8.20
2023-01-23T01:31:23.271Z,9.35
2023-01-23T01:33:50.561Z,9.05
2023-01-23T01:36:21.799Z,10.07
2023-01-23T01:38:50.156Z,9.85
2023-01-23T01:41:17.969Z,9.00
2023-01-23T01:43:46.180Z,8.65
2023-01-23T01:46:23.002Z,9.63
2023-01-23T01:49:21.154Z,8.77
2023-01-23T01:52:02.182Z,9.70
2023-01-23T01:54:35.155Z,8.50
2023-01-23T01:57:25.183Z,9.63
2023-01-23T02:00:08.255Z,8.73
2023-01-23T02:02:58.983Z,9.00
2023-01-23T02:05:34.303Z,8.25
2023-01-23T02:08:33.165Z,8.25
2023-01-23T02:11:03.339Z,9.18
2023-01-23T02:13:40.141Z,8.23
2023-01-23T02:16:17.864Z,9.20
2023-01-23T02:18:49.068Z,8.68
2023-01-23T02:21:20.148Z,8.45
2023-01-23T02:24:03.020Z,8.95
2023-01-23T02:26:33.803Z,9.88
2023-01-23T02:29:04.189Z,9.30
2023-01-23T02:31:46.047Z,9.70
2023-01-23T02:34:14.606Z,8.75
2023-01-23T02:36:47.430Z,9.05
2023-01-23T02:39:16.535Z,7.93
2023-01-23T02:41:51.335Z,9.10
2023-01-23T02:44:31.188Z,8.30
2023-01-23T02:47:07.792Z,9.23
2023-01-23T02:49:34.664Z,9.27
2023-01-23T02:52:07.128Z,9.30
2023-01-23T02:54:36.267Z,8.85
2023-01-23T02:57:03.724Z,9.55
2023-01-23T02:59:49.437Z,9.82
2023-01-23T03:02:21.263Z,9.13
2023-01-23T03:04:48.571Z,9.30
2023-01-23T03:07:15.670Z,9.32
2023-01-23T03:09:43.827Z,9.35
2023-01-23T03:12:10.708Z,9.38
2023-01-23T03:14:37.632Z,9.48
2023-01-23T03:17:07.196Z,9.32
2023-01-23T03:19:36.144Z,8.70
2023-01-23T03:22:04.179Z,9.05
2023-01-23T03:24:33.990Z,9.65
2023-01-23T03:27:03.657Z,9.25
2023-01-23T03:29:56.642Z,8.85
2023-01-23T03:32:25.727Z,8.05
2023-01-23T03:34:55.159Z,8.75
2023-01-23T03:37:22.464Z,9.63
2023-01-23T03:40:10.194Z,8.82
2023-01-23T03:42:38.541Z,8.95
2023-01-23T03:45:08.380Z,8.65
2023-01-23T03:47:37.170Z,9.32
2023-01-23T03:50:10.218Z,9.02
2023-01-23T03:52:41.144Z,8.90
2023-01-23T03:55:11.156Z,9.55
2023-01-23T03:57:38.751Z,8.20
2023-01-23T04:00:24.670Z,9.55
2023-01-23T04:03:01.996Z,9.82
2023-01-23T04:05:29.264Z,9.93
2023-01-23T04:07:57.171Z,9.07
2023-01-23T04:10:25.372Z,9.35
2023-01-23T04:12:59.174Z,9.65
2023-01-23T04:15:25.764Z,9.38
2023-01-23T04:17:56.219Z,8.98
2023-01-23T04:20:25.778Z,10.82
2023-01-23T04:22:58.160Z,8.38
2023-01-23T04:25:28.530Z,8.75
2023-01-23T04:27:55.237Z,8.75
2023-01-23T04:30:25.238Z,8.65
2023-01-23T04:32:52.005Z,9.45
2023-01-23T04:35:19.619Z,9.33
2023-01-23T04:37:46.226Z,10.25
2023-01-23T04:40:16.183Z,8.68
2023-01-23T04:42:54.314Z,8.30
2023-01-23T04:45:43.959Z,8.70
2023-01-23T04:48:39.325Z,9.20
2023-01-23T04:51:06.469Z,8.98
2023-01-23T04:53:37.163Z,10.23
2023-01-23T04:56:05.192Z,10.18
2023-01-23T04:58:32.190Z,9.40
2023-01-23T05:01:03.882Z,8.55
2023-01-23T05:03:36.162Z,9.75
2023-01-23T05:06:02.858Z,8.70
2023-01-23T05:08:31.210Z,9.90
2023-01-23T05:11:22.313Z,9.00
2023-01-23T05:13:50.838Z,7.97
2023-01-23T05:16:20.175Z,8.93
2023-01-23T05:19:05.460Z,9.13
2023-01-23T05:21:33.961Z,9.25
2023-01-23T05:24:03.143Z,8.68
2023-01-23T05:26:31.210Z,9.93
2023-01-23T05:28:59.624Z,9.55
2023-01-23T05:31:29.292Z,9.50
2023-01-23T05:34:18.705Z,9.75
2023-01-23T05:36:45.370Z,9.43
2023-01-23T05:39:11.892Z,9.05
2023-01-23T05:41:39.903Z,10.15
2023-01-23T05:44:30.488Z,8.85
2023-01-23T05:47:04.602Z,8.95
2023-01-23T05:49:33.369Z,8.90
2023-01-23T05:52:00.652Z,8.90
2023-01-23T05:54:28.085Z,9.68
2023-01-23T05:56:54.633Z,9.95
2023-01-23T05:59:41.209Z,10.18
2023-01-23T06:02:29.570Z,8.80
2023-01-23T06:05:20.723Z,10.35
2023-01-23T06:08:06.155Z,10.00
2023-01-23T06:10:37.212Z,10.07
2023-01-23T06:13:05.173Z,9.32
2023-01-23T06:15:31.910Z,9.32
2023-01-23T06:18:04.224Z,10.63
2023-01-23T06:20:30.770Z,10.15
2023-01-23T06:22:58.655Z,9.68
2023-01-23T06:25:26.730Z,9.50
2023-01-23T06:27:57.153Z,9.68
2023-01-23T06:30:27.118Z,9.80
2023-01-23T06:32:57.202Z,10.95
2023-01-23T06:35:33.161Z,9.63
2023-01-23T06:38:01.197Z,10.32
2023-01-23T06:40:30.384Z,10.82
2023-01-23T06:43:22.186Z,10.57
2023-01-23T06:45:49.973Z,10.05
2023-01-23T06:48:20.180Z,10.93
2023-01-23T06:50:47.817Z,10.68
2023-01-23T06:53:15.735Z,12.13
2023-01-23T06:55:46.180Z,11.80
2023-01-23T06:58:14.975Z,10.57
2023-01-23T07:00:46.176Z,11.38
2023-01-23T07:03:34.608Z,11.32
2023-01-23T07:06:08.160Z,12.35
2023-01-23T07:08:35.967Z,11.33
2023-01-23T07:11:05.249Z,11.20
2023-01-23T07:13:32.231Z,11.35
2023-01-23T07:16:00.261Z,12.02
2023-01-23T07:18:30.221Z,11.48
2023-01-23T07:21:00.184Z,13.53
2023-01-23T07:23:28.589Z,13.40
2023-01-23T07:26:01.183Z,13.38
2023-01-23T07:28:27.879Z,12.18
2023-01-23T07:30:54.544Z,12.45
2023-01-23T07:33:22.610Z,12.23
2023-01-23T07:35:49.465Z,12.52
2023-01-23T07:38:17.605Z,12.45
2023-01-23T07:40:47.201Z,12.27
2023-01-23T07:43:15.649Z,11.30
2023-01-23T07:45:42.324Z,12.20
2023-01-23T07:48:10.645Z,11.23
2023-01-23T07:50:38.093Z,11.40
2023-01-23T07:53:09.174Z,11.38
2023-01-23T07:55:40.204Z,12.68
2023-01-23T07:58:08.905Z,12.07
2023-01-23T08:00:38.215Z,11.68
2023-01-23T08:03:04.735Z,11.48
2023-01-23T08:05:32.533Z,12.88
2023-01-23T08:08:12.042Z,12.52
2023-01-23T08:10:41.362Z,12.83
2023-01-23T08:13:09.592Z,12.20
2023-01-23T08:15:37.848Z,11.63
2023-01-23T08:18:05.824Z,11.50
2023-01-23T08:20:34.022Z,12.43
2023-01-23T08:23:03.194Z,10.97
2023-01-23T08:25:30.400Z,12.00
2023-01-23T08:27:58.532Z,11.23
2023-01-23T08:30:26.270Z,10.77
2023-01-23T08:32:56.185Z,11.55
2023-01-23T08:35:22.691Z,11.00
2023-01-23T08:37:50.554Z,12.00
2023-01-23T08:40:17.361Z,11.18
2023-01-23T08:42:43.848Z,11.75
2023-01-23T08:45:10.501Z,12.13
2023-01-23T08:47:38.082Z,12.60
2023-01-23T08:50:05.635Z,12.32
2023-01-23T08:52:37.173Z,11.23
2023-01-23T08:55:04.927Z,11.90
2023-01-23T08:57:31.601Z,12.65
2023-01-23T08:59:58.486Z,12.33
2023-01-23T09:02:25.096Z,11.82
2023-01-23T09:04:53.747Z,12.52
2023-01-23T09:07:20.312Z,11.27
2023-01-23T09:09:48.576Z,10.52
2023-01-23T09:12:16.576Z,11.33
2023-01-23T09:14:47.224Z,11.95
2023-01-23T09:17:15.183Z,12.30
2023-01-23T09:19:41.670Z,10.93
2023-01-23T09:22:08.174Z,11.90
2023-01-23T09:24:36.185Z,12.38
2023-01-23T09:27:04.546Z,11.98
2023-01-23T09:29:32.178Z,11.10
2023-01-23T09:32:00.663Z,11.40
2023-01-23T09:34:27.334Z,11.65
2023-01-23T09:36:56.108Z,12.17
2023-01-23T09:39:22.646Z,12.88
2023-01-23T09:41:50.669Z,11.93
2023-01-23T09:44:36.254Z,12.27
2023-01-23T09:47:15.325Z,12.18
2023-01-23T09:50:01.192Z,11.53
2023-01-23T09:52:49.654Z,11.95
2023-01-23T09:55:31.528Z,10.35
2023-01-23T09:58:01.011Z,11.05
2023-01-23T10:00:34.255Z,10.88
2023-01-23T10:03:10.461Z,10.93
2023-01-23T10:05:44.209Z,11.75
2023-01-23T10:08:33.980Z,11.60
2023-01-23T10:11:11.311Z,11.57
2023-01-23T10:13:54.516Z,10.82
2023-01-23T10:16:50.300Z,11.37
2023-01-23T10:20:14.803Z,11.50
2023-01-23T10:22:59.675Z,10.57
2023-01-23T10:25:33.398Z,12.13
2023-01-23T10:28:22.532Z,11.38
2023-01-23T10:30:53.740Z,11.43
2023-01-23T10:33:35.201Z,12.13
2023-01-23T10:36:17.461Z,11.13
2023-01-23T10:38:59.264Z,11.40
2023-01-23T10:41:26.604Z,12.57
2023-01-23T10:43:56.936Z,11.50
2023-01-23T10:46:30.491Z,11.02
2023-01-23T10:49:03.360Z,11.15
2023-01-23T10:51:29.882Z,11.45
2023-01-23T10:54:08.847Z,11.70
2023-01-23T10:56:46.296Z,10.97
2023-01-23T10:59:23.199Z,10.20
2023-01-23T11:02:16.653Z,11.95
2023-01-23T11:04:45.904Z,10.75
2023-01-23T11:07:18.680Z,11.05
2023-01-23T11:10:07.782Z,11.73
2023-01-23T11:12:46.060Z,11.20
2023-01-23T11:15:23.902Z,12.02
2023-01-23T11:17:53.254Z,12.40
2023-01-23T11:20:30.198Z,10.55
2023-01-23T11:23:15.630Z,11.05
2023-01-23T11:25:44.688Z,11.05
2023-01-23T11:28:27.047Z,10.88
2023-01-23T11:31:16.721Z,11.15
2023-01-23T11:33:54.910Z,10.27
2023-01-23T11:36:37.220Z,11.10
2023-01-23T11:39:25.363Z,11.38
2023-01-23T11:41:54.195Z,11.05
2023-01-23T11:44:23.351Z,11.25
2023-01-23T11:47:03.241Z,10.27
2023-01-23T11:49:57.265Z,11.07
2023-01-23T11:52:32.301Z,10.68
2023-01-23T11:55:04.677Z,10.68
2023-01-23T11:58:14.331Z,10.45
2023-01-23T12:01:20.496Z,10.68
2023-01-23T12:04:15.273Z,10.50
2023-01-23T12:07:01.230Z,10.65
2023-01-23T12:10:01.070Z,10.30
2023-01-23T12:12:47.385Z,9.68
2023-01-23T12:15:34.219Z,9.98
2023-01-23T12:18:22.116Z,10.60
2023-01-23T12:21:25.434Z,10.27
2023-01-23T12:24:04.259Z,10.23
2023-01-23T12:26:31.669Z,9.05
2023-01-23T12:29:05.064Z,10.80
2023-01-23T12:32:04.853Z,8.83
2023-01-23T12:34:57.270Z,9.55
2023-01-23T12:37:31.128Z,8.07
2023-01-23T12:40:23.137Z,9.32
2023-01-23T12:43:05.608Z,8.30
2023-01-23T12:45:33.040Z,8.63
2023-01-23T12:48:15.010Z,8.90
2023-01-23T12:50:57.377Z,8.18
2023-01-23T12:53:24.135Z,8.63
2023-01-23T12:56:06.235Z,8.75
2023-01-23T12:58:38.222Z,9.07
2023-01-23T13:01:30.261Z,9.25
2023-01-23T13:04:30.250Z,9.02
2023-01-23T13:07:08.696Z,9.00
2023-01-23T13:09:36.846Z,10.38
2023-01-23T13:12:21.858Z,9.80
2023-01-23T13:15:12.512Z,8.90
2023-01-23T13:17:45.469Z,8.73
2023-01-23T13:20:41.423Z,8.65
2023-01-23T13:23:24.828Z,8.10
2023-01-23T13:26:23.109Z,9.07
2023-01-23T13:28:56.252Z,8.88
2023-01-23T13:31:46.276Z,8.88
2023-01-23T13:34:16.425Z,9.00
2023-01-23T13:36:44.665Z,8.63
2023-01-23T13:39:17.548Z,9.33
2023-01-23T13:41:50.832Z,8.80
2023-01-23T13:44:18.065Z,9.32
2023-01-23T14:22:00.486Z,11.97
2023-01-23T14:24:44.947Z,12.38
2023-01-23T14:27:52.562Z,11.75
2023-01-23T14:30:26.974Z,12.25
2023-01-23T14:32:55.311Z,11.88
2023-01-23T14:35:31.616Z,12.50
2023-01-23T14:38:03.194Z,12.35
2023-01-23T14:40:43.194Z,10.75
2023-01-23T14:43:22.266Z,12.27
2023-01-23T14:45:56.108Z,11.93
2023-01-23T14:48:26.227Z,11.70
2023-01-23T14:51:19.777Z,11.45
2023-01-23T14:53:56.286Z,10.80
2023-01-23T14:56:28.126Z,10.82
2023-01-23T14:58:58.875Z,10.95
2023-01-23T15:01:26.953Z,11.30
2023-01-23T15:03:58.373Z,10.27
2023-01-23T15:06:27.555Z,10.85
2023-01-23T15:09:05.421Z,10.40
2023-01-23T15:11:35.282Z,9.43
2023-01-23T15:14:03.963Z,10.17
2023-01-23T15:16:35.020Z,9.23
2023-01-23T15:19:06.241Z,9.57
2023-01-23T15:21:40.246Z,9.02
2023-01-23T15:24:21.590Z,8.80
2023-01-23T15:26:54.208Z,9.20
2023-01-23T15:29:23.359Z,9.02
2023-01-23T15:31:55.268Z,8.85
2023-01-23T15:34:27.283Z,8.70
2023-01-23T15:36:59.603Z,10.38
2023-01-23T15:39:31.284Z,9.10
2023-01-23T15:42:02.522Z,9.48
2023-01-23T15:44:32.960Z,10.30
2023-01-23T15:47:03.846Z,10.70
2023-01-23T15:49:35.767Z,10.90
2023-01-23T15:52:28.505Z,10.10
2023-01-23T15:54:59.982Z,10.30
2023-01-23T15:57:26.780Z,9.73
2023-01-23T15:59:56.272Z,10.10
2023-01-23T16:02:31.249Z,9.80
2023-01-23T16:05:02.374Z,10.67
2023-01-23T16:07:34.599Z,9.57
2023-01-23T16:10:11.426Z,10.90
2023-01-23T16:12:40.247Z,11.20
2023-01-23T16:15:15.550Z,10.20
2023-01-23T16:17:44.102Z,10.53
2023-01-23T16:20:19.256Z,11.73
2023-01-23T16:22:51.292Z,13.43
2023-01-23T16:25:34.713Z,13.02
2023-01-23T16:28:25.238Z,10.65
2023-01-23T16:30:52.581Z,10.00
2023-01-23T16:33:20.351Z,10.43
2023-01-23T16:35:48.734Z,10.60
2023-01-23T16:38:26.298Z,10.80
2023-01-23T16:40:56.684Z,11.43
2023-01-23T16:43:23.178Z,11.43
2023-01-23T16:45:55.002Z,11.20
2023-01-23T16:48:27.093Z,10.85
2023-01-23T16:51:14.847Z,12.95
2023-01-23T16:53:43.591Z,11.18
2023-01-23T16:56:21.541Z,10.63
2023-01-23T16:58:48.342Z,10.95
2023-01-23T17:01:19.363Z,12.20
2023-01-23T17:03:55.868Z,12.10
2023-01-23T17:06:22.508Z,11.38
2023-01-23T17:08:50.108Z,12.53
2023-01-23T17:11:28.827Z,11.00
2023-01-23T17:14:02.570Z,11.95
2023-01-23T17:16:32.366Z,11.27
2023-01-23T17:19:04.613Z,11.65
2023-01-23T17:21:34.311Z,11.67
2023-01-23T17:24:01.113Z,11.27
2023-01-23T17:26:28.290Z,11.80
2023-01-23T17:28:56.648Z,11.02
2023-01-23T17:31:27.040Z,13.18
2023-01-23T17:33:56.698Z,11.57
2023-01-23T17:36:25.133Z,11.13
2023-01-23T17:38:59.295Z,12.45
2023-01-23T17:41:29.843Z,11.52
2023-01-23T17:43:58.712Z,11.77
2023-01-23T17:46:29.092Z,10.43
2023-01-23T17:48:56.780Z,11.52
2023-01-23T17:51:25.150Z,11.63
2023-01-23T17:53:52.544Z,11.10
2023-01-23T17:56:20.759Z,12.52
2023-01-23T17:58:50.292Z,11.30
2023-01-23T18:01:26.335Z,11.52
2023-01-23T18:03:55.261Z,11.80
2023-01-23T18:06:21.791Z,12.30
2023-01-23T18:08:48.463Z,11.63
2023-01-23T18:11:24.319Z,11.33
2023-01-23T18:14:20.298Z,10.85
2023-01-23T18:16:48.143Z,11.43
2023-01-23T18:19:19.183Z,11.18
2023-01-23T18:21:53.296Z,10.52
2023-01-23T18:24:27.285Z,10.63
2023-01-23T18:27:23.313Z,10.13
2023-01-23T18:30:18.111Z,9.73
2023-01-23T18:33:21.943Z,9.40
2023-01-23T18:36:06.815Z,9.60
2023-01-23T18:38:46.022Z,10.90
2023-01-23T18:41:22.764Z,10.10
2023-01-23T18:44:14.945Z,9.60
2023-01-23T18:46:41.577Z,9.35
2023-01-23T18:49:27.742Z,10.82
2023-01-23T18:52:04.355Z,11.27
2023-01-23T18:54:52.310Z,9.40
2023-01-23T18:58:00.333Z,9.50
2023-01-23T19:00:39.352Z,8.75
2023-01-23T19:03:14.506Z,8.98
2023-01-23T19:05:41.734Z,9.03
2023-01-23T19:08:22.918Z,8.57
2023-01-23T19:10:51.304Z,8.13
2023-01-23T19:13:31.308Z,9.02
2023-01-23T19:16:31.260Z,8.77
2023-01-23T19:19:28.703Z,9.40
2023-01-23T19:21:57.263Z,9.32
2023-01-23T19:24:26.234Z,8.73
2023-01-23T19:26:55.878Z,8.82
2023-01-23T19:29:23.493Z,9.60
2023-01-23T19:32:05.174Z,9.07
2023-01-23T19:34:35.357Z,10.00
2023-01-23T19:37:02.790Z,9.45
2023-01-23T19:39:30.866Z,9.65
2023-01-23T19:41:59.601Z,9.82
2023-01-23T19:44:30.375Z,10.20
2023-01-23T19:46:57.125Z,9.65
2023-01-23T19:49:27.283Z,8.45
2023-01-23T19:51:55.303Z,9.15
2023-01-23T19:54:24.416Z,9.50
2023-01-23T19:56:52.314Z,9.67
2023-01-23T19:59:20.963Z,10.77
2023-01-23T20:01:50.309Z,9.55
2023-01-23T20:04:21.331Z,9.38
2023-01-23T20:06:54.569Z,9.80
2023-01-23T20:09:23.321Z,9.73
2023-01-23T20:11:49.942Z,8.40
2023-01-23T20:14:19.319Z,8.60
2023-01-23T20:16:47.683Z,8.50
2023-01-23T20:19:19.323Z,8.18
2023-01-23T20:21:47.778Z,8.30
2023-01-23T20:24:15.795Z,8.63
2023-01-23T20:26:42.404Z,7.57
2023-01-23T20:29:13.308Z,8.40
2023-01-23T20:31:43.286Z,8.38
2023-01-23T20:34:09.830Z,8.17
2023-01-23T20:36:36.432Z,8.52
2023-01-23T20:39:04.760Z,8.52
2023-01-23T20:41:34.274Z,8.50
2023-01-23T20:44:00.932Z,8.32
2023-01-23T20:46:29.429Z,8.30
2023-01-23T20:48:56.267Z,8.88
2023-01-23T20:51:24.784Z,8.20
2023-01-23T20:53:51.297Z,8.07
2023-01-23T20:56:21.319Z,8.40
2023-01-23T20:59:08.296Z,7.13
2023-01-23T21:01:57.487Z,8.20
2023-01-23T21:04:30.017Z,8.05
2023-01-23T21:06:57.058Z,7.97
2023-01-23T21:09:25.335Z,8.98
2023-01-23T21:11:53.898Z,8.33
2023-01-23T21:14:22.084Z,8.15
2023-01-23T21:16:51.292Z,7.95
2023-01-23T21:19:19.815Z,8.55
2023-01-23T21:21:48.336Z,8.48
2023-01-23T21:24:15.738Z,8.20
2023-01-23T21:26:44.340Z,9.18
2023-01-23T21:29:14.330Z,9.23
2023-01-23T21:31:42.746Z,7.22
2023-01-23T21:34:12.783Z,7.13
2023-01-23T21:36:40.922Z,7.67
2023-01-23T21:39:10.545Z,7.38
2023-01-23T21:41:37.164Z,7.40
2023-01-23T21:44:06.761Z,7.05
2023-01-23T21:46:33.380Z,7.68
2023-01-23T21:49:00.785Z,7.77
2023-01-23T21:51:29.317Z,7.43
2023-01-23T21:53:57.917Z,7.47
2023-01-23T21:56:26.317Z,8.80
2023-01-23T21:58:53.985Z,7.95
2023-01-23T22:01:33.250Z,7.40
2023-01-23T22:04:06.831Z,8.15
2023-01-23T22:06:34.603Z,7.05
2023-01-23T22:09:03.313Z,7.60
2023-01-23T22:11:31.019Z,8.10
2023-01-23T22:13:59.313Z,8.50
2023-01-23T22:16:46.387Z,8.32
2023-01-23T22:19:25.340Z,8.00
2023-01-23T22:21:54.685Z,7.97
2023-01-23T22:24:24.292Z,7.53
2023-01-23T22:26:52.654Z,7.60
2023-01-23T22:29:21.310Z,7.97
2023-01-23T22:31:50.417Z,7.75
2023-01-23T22:34:18.672Z,7.68
2023-01-23T22:36:45.237Z,7.28
2023-01-23T22:39:15.929Z,8.10
2023-01-23T22:41:46.151Z,7.53
2023-01-23T22:44:16.018Z,8.43
2023-01-23T22:46:43.159Z,8.27
2023-01-23T22:49:12.674Z,7.85
2023-01-23T22:51:41.336Z,8.82
2023-01-23T22:54:07.854Z,8.15
2023-01-23T22:56:35.847Z,8.82
2023-01-23T22:59:02.385Z,8.30
2023-01-23T23:01:32.339Z,8.98
2023-01-23T23:04:02.373Z,8.93
2023-01-23T23:06:31.339Z,8.40
2023-01-23T23:08:59.713Z,8.32
2023-01-23T23:11:31.312Z,8.30
2023-01-23T23:13:58.724Z,8.55
2023-01-23T23:16:27.860Z,8.50
2023-01-23T23:18:57.345Z,8.57
2023-01-23T23:21:29.328Z,9.02
2023-01-23T23:23:59.326Z,8.57
2023-01-23T23:26:29.956Z,8.55
2023-01-23T23:28:57.722Z,7.80
2023-01-23T23:31:27.422Z,8.02
2023-01-23T23:33:55.745Z,7.30
2023-01-23T23:36:22.716Z,7.47
2023-01-23T23:38:50.723Z,7.40
2023-01-23T23:41:19.345Z,7.40
2023-01-23T23:43:46.062Z,8.27
2023-01-23T23:46:14.431Z,8.27
2023-01-23T23:48:45.298Z,9.15
2023-01-23T23:51:17.207Z,8.20
2023-01-23T23:53:43.807Z,8.50
2023-01-23T23:56:19.176Z,7.65
2023-01-23T23:58:46.021Z,8.40
